Time;durP1;ratioP1;P1;durP2;ratioP2;P2;SDS_P1;SDS_P2;PMS_P1;PMS_P2;Temp;Humidity;BMP_temperature;BMP_pressure;BME280_temperature;BME280_humidity;BME280_pressure;Samples;Min_cycle;Max_cycle;Signal;HPM_P1;HPM_P2
2023/02/19 00:01:24;;;;;;;;;5.50;3.50;;;;;11.91;100.00;102332.91;5038232;28;45577;-79
2023/02/19 00:03:57;;;;;;;;;5.25;3.25;;;;;11.91;100.00;102348.56;5020428;28;45399;-79
2023/02/19 00:06:24;;;;;;;;;5.50;3.00;;;;;11.86;100.00;102334.66;5020415;28;45393;-80
2023/02/19 00:08:50;;;;;;;;;6.00;3.00;;;;;11.83;100.00;102332.09;5020013;28;45749;-80
2023/02/19 00:11:23;;;;;;;;;3.75;3.25;;;;;11.80;100.00;102338.19;5038127;28;45788;-80
2023/02/19 00:13:51;;;;;;;;;8.50;5.00;;;;;11.84;100.00;102339.00;5020142;28;45363;-80
2023/02/19 00:16:19;;;;;;;;;6.25;3.00;;;;;11.82;100.00;102336.41;5017683;28;46370;-79
2023/02/19 00:18:45;;;;;;;;;3.00;3.00;;;;;11.83;100.00;102332.09;5027752;28;45744;-78
2023/02/19 00:21:11;;;;;;;;;6.75;3.00;;;;;11.87;100.00;102344.22;5003335;28;45892;-76
2023/02/19 00:23:36;;;;;;;;;7.50;6.00;;;;;11.89;100.00;102345.06;5019067;28;46037;-77
2023/02/19 00:26:08;;;;;;;;;4.25;3.75;;;;;11.90;100.00;102338.13;5034874;28;47526;-77
2023/02/19 00:28:33;;;;;;;;;2.00;2.00;;;;;11.89;100.00;102333.78;5019144;28;45778;-76
2023/02/19 00:31:19;;;;;;;;;6.00;5.00;;;;;11.88;100.00;102345.06;5018323;28;45580;-77
2023/02/19 00:33:46;;;;;;;;;4.25;4.00;;;;;11.86;100.00;102328.56;5017285;28;45319;-77
2023/02/19 00:36:11;;;;;;;;;10.50;6.00;;;;;11.87;100.00;102325.97;5017608;28;45676;-78
2023/02/19 00:38:38;;;;;;;;;4.00;2.25;;;;;11.85;100.00;102327.72;5016916;28;64785;-77
2023/02/19 00:41:19;;;;;;;;;7.00;4.25;;;;;11.86;100.00;102332.03;5025400;28;45399;-77
2023/02/19 00:43:58;;;;;;;;;4.25;3.50;;;;;11.78;100.00;102311.25;5035555;28;45390;-77
2023/02/19 00:46:32;;;;;;;;;7.75;5.00;;;;;11.77;100.00;102313.84;5037466;28;45426;-77
2023/02/19 00:48:58;;;;;;;;;8.00;6.00;;;;;11.77;100.00;102324.28;5019362;28;45876;-77
2023/02/19 00:51:26;;;;;;;;;6.75;4.50;;;;;11.73;100.00;102318.22;5040593;28;45673;-79
2023/02/19 00:53:52;;;;;;;;;6.25;5.75;;;;;11.70;100.00;102313.06;5039247;28;45388;-77
2023/02/19 00:56:17;;;;;;;;;7.25;6.00;;;;;11.66;100.00;102310.47;5019856;28;46514;-77
2023/02/19 00:58:43;;;;;;;;;2.00;1.00;;;;;11.61;100.00;102300.94;5036188;28;45221;-77
2023/02/19 01:01:09;;;;;;;;;4.75;4.75;;;;;11.60;100.00;102299.22;5037175;28;66119;-77
2023/02/19 01:03:36;;;;;;;;;8.00;4.75;;;;;11.57;100.00;102307.06;5019589;28;45394;-77
2023/02/19 01:06:02;;;;;;;;;5.75;3.00;;;;;11.55;100.00;102313.16;5037362;28;47263;-77
2023/02/19 01:08:29;;;;;;;;;7.25;3.00;;;;;11.52;100.00;102292.34;5037143;28;45860;-77
2023/02/19 01:10:55;;;;;;;;;5.25;5.25;;;;;11.53;100.00;102297.53;5037174;28;45415;-77
2023/02/19 01:13:20;;;;;;;;;8.50;4.25;;;;;11.52;100.00;102306.25;5036934;28;45481;-77
2023/02/19 01:15:46;;;;;;;;;7.00;3.25;;;;;11.57;100.00;102312.28;5036195;28;73069;-77
2023/02/19 01:18:11;;;;;;;;;3.00;3.00;;;;;11.61;100.00;102320.97;5036310;28;61090;-77
2023/02/19 01:20:39;;;;;;;;;5.50;3.00;;;;;11.61;100.00;102302.69;5036898;28;45415;-77
2023/02/19 01:23:04;;;;;;;;;2.50;0.00;;;;;11.58;100.00;102308.78;5037551;28;45284;-77
2023/02/19 01:25:29;;;;;;;;;5.75;5.25;;;;;11.63;100.00;102306.16;5036088;28;68440;-77
2023/02/19 01:27:55;;;;;;;;;5.00;2.25;;;;;11.63;100.00;102307.03;5036034;28;66671;-77
2023/02/19 01:30:20;;;;;;;;;1.00;1.00;;;;;11.63;100.00;102295.72;5036093;28;64449;-77
2023/02/19 01:32:45;;;;;;;;;5.25;4.25;;;;;11.67;100.00;102307.00;5035885;28;45444;-77
2023/02/19 01:35:11;;;;;;;;;3.00;3.00;;;;;11.65;100.00;102304.41;5036197;28;69524;-77
2023/02/19 01:37:36;;;;;;;;;9.50;4.00;;;;;11.66;100.00;102303.50;5035865;28;70951;-77
2023/02/19 01:40:02;;;;;;;;;5.50;3.00;;;;;11.62;100.00;102310.50;5036730;28;45374;-77
2023/02/19 01:42:27;;;;;;;;;7.00;3.00;;;;;11.70;100.00;102322.59;5036601;28;45586;-77
2023/02/19 01:45:31;;;;;;;;;3.50;3.50;;;;;11.71;100.00;102319.13;5036041;28;68550;-77
2023/02/19 01:48:04;;;;;;;;;7.25;3.00;;;;;11.73;100.00;102319.97;5035622;28;45880;-77
2023/02/19 01:50:34;;;;;;;;;5.50;4.75;;;;;11.69;100.00;102315.69;5018719;28;45454;-77
2023/02/19 01:53:04;;;;;;;;;5.00;2.00;;;;;11.73;100.00;102323.44;5036731;28;45448;-77
2023/02/19 01:55:30;;;;;;;;;3.00;3.00;;;;;11.74;100.00;102314.75;5018899;28;45300;-77
2023/02/19 01:57:56;;;;;;;;;6.00;3.25;;;;;11.76;100.00;102312.13;5036775;28;45421;-77
2023/02/19 02:00:23;;;;;;;;;2.00;2.00;;;;;11.80;100.00;102319.91;5036599;28;45413;-77
2023/02/19 02:02:51;;;;;;;;;3.50;3.50;;;;;11.82;100.00;102320.75;5036907;28;45366;-78
2023/02/19 02:05:31;;;;;;;;;2.00;2.00;;;;;11.81;100.00;102319.03;5019070;28;45368;-77
2023/02/19 02:10:43;;;;;;;;;6.25;3.00;;;;;11.90;100.00;102314.66;5036277;28;45489;-78
2023/02/19 02:13:08;;;;;;;;;2.25;2.25;;;;;11.91;100.00;102305.94;5035691;28;59210;-77
2023/02/19 02:15:42;;;;;;;;;3.00;2.00;;;;;11.94;100.00;102325.06;5016972;28;71074;-77
2023/02/19 02:18:14;;;;;;;;;2.00;1.25;;;;;11.97;100.00;102326.75;5018474;28;45410;-78
2023/02/19 02:20:51;;;;;;;;;2.25;2.00;;;;;11.98;100.00;102323.28;5036280;28;45378;-77
2023/02/19 02:23:34;;;;;;;;;3.75;2.00;;;;;12.02;100.00;102322.38;5036429;28;45490;-77
2023/02/19 02:26:18;;;;;;;;;3.00;2.00;;;;;12.07;100.00;102319.69;5017972;28;45786;-77
2023/02/19 02:28:59;;;;;;;;;1.00;1.00;;;;;12.10;100.00;102323.16;5036186;28;45512;-77
2023/02/19 02:31:31;;;;;;;;;2.50;1.50;;;;;12.11;100.00;102313.56;5018638;28;45395;-78
2023/02/19 02:34:01;;;;;;;;;1.50;1.00;;;;;12.12;100.00;102317.91;5036568;28;45380;-77
2023/02/19 02:36:33;;;;;;;;;1.00;1.00;;;;;12.13;100.00;102311.84;5017711;28;45746;-77
2023/02/19 02:39:02;;;;;;;;;1.00;1.00;;;;;12.11;100.00;102317.06;5019475;28;45449;-77
2023/02/19 02:41:27;;;;;;;;;1.00;1.00;;;;;12.13;100.00;102312.69;5029794;28;45444;-77
2023/02/19 02:43:53;;;;;;;;;2.50;2.00;;;;;12.12;100.00;102316.16;5017558;28;65800;-77
2023/02/19 02:46:27;;;;;;;;;1.00;1.00;;;;;12.13;100.00;102314.44;5035282;28;59769;-77
2023/02/19 02:48:57;;;;;;;;;2.25;1.00;;;;;12.18;100.00;102326.56;5018156;28;45426;-78
2023/02/19 02:51:37;;;;;;;;;1.50;1.50;;;;;12.21;100.00;102320.44;5036065;28;45344;-77
2023/02/19 02:56:55;;;;;;;;;2.75;1.75;;;;;12.19;100.00;102317.84;5020842;28;45379;-77
2023/02/19 02:59:24;;;;;;;;;1.00;1.00;;;;;12.21;100.00;102320.44;5017517;28;45771;-78
2023/02/19 03:02:10;;;;;;;;;2.00;1.00;;;;;12.16;100.00;102323.06;5018328;28;45348;-78
2023/02/19 03:07:35;;;;;;;;;1.00;1.00;;;;;12.16;100.00;102327.44;5036028;28;45407;-77
2023/02/19 03:10:02;;;;;;;;;1.00;0.00;;;;;12.18;100.00;102331.78;5017548;28;45384;-77
2023/02/19 03:20:48;;;;;;;;;0.00;0.00;;;;;12.22;100.00;102331.72;5020683;28;45556;-78
2023/02/19 03:23:15;;;;;;;;;1.00;0.00;;;;;12.20;100.00;102319.56;5018036;28;45411;-78
2023/02/19 03:31:18;;;;;;;;;0.00;0.00;;;;;12.20;100.00;102326.53;4954331;28;45788;-78
2023/02/19 03:33:46;;;;;;;;;2.00;0.00;;;;;12.20;100.00;102332.63;4938833;28;45428;-78
2023/02/19 03:36:17;;;;;;;;;2.50;0.00;;;;;12.22;100.00;102332.63;4938260;28;45553;-77
2023/02/19 03:38:57;;;;;;;;;1.00;1.00;;;;;12.22;100.00;102332.63;4954205;28;46346;-77
2023/02/19 03:41:22;;;;;;;;;2.00;2.00;;;;;12.24;100.00;102330.84;4937782;28;45552;-77
2023/02/19 03:44:05;;;;;;;;;2.67;1.00;;;;;12.20;100.00;102327.41;4954313;28;45445;-78
2023/02/19 03:46:37;;;;;;;;;0.00;0.00;;;;;12.25;100.00;102329.97;4938165;28;45599;-77
2023/02/19 03:49:15;;;;;;;;;1.00;0.00;;;;;12.25;100.00;102327.34;4954112;28;47184;-78
2023/02/19 03:51:49;;;;;;;;;0.00;0.00;;;;;12.28;100.00;102323.84;4938253;28;45741;-78
2023/02/19 03:54:42;;;;;;;;;0.75;0.00;;;;;12.29;100.00;102329.03;4938911;28;45634;-77
2023/02/19 03:57:19;;;;;;;;;2.75;0.00;;;;;12.32;100.00;102336.84;4941483;28;46474;-77
2023/02/19 04:00:09;;;;;;;;;1.00;0.00;;;;;12.32;100.00;102336.00;4957369;28;46368;-77
2023/02/19 04:02:42;;;;;;;;;1.00;0.00;;;;;12.28;100.00;102340.38;4947934;28;45413;-78
2023/02/19 04:05:15;;;;;;;;;0.00;0.00;;;;;12.28;100.00;102335.16;4941420;28;45504;-78
2023/02/19 04:07:44;;;;;;;;;0.25;0.00;;;;;12.30;100.00;102332.53;4956309;28;45401;-78
2023/02/19 04:10:10;;;;;;;;;0.00;0.00;;;;;12.29;100.00;102344.69;5000310;28;45482;-77
2023/02/19 04:12:38;;;;;;;;;1.00;0.00;;;;;12.31;100.00;102339.47;4999419;28;67484;-78
2023/02/19 04:15:10;;;;;;;;;0.00;0.00;;;;;12.33;100.00;102342.94;5000844;28;45521;-78
2023/02/19 04:17:55;;;;;;;;;0.50;0.00;;;;;12.32;100.00;102346.44;5000685;28;45583;-78
2023/02/19 04:20:22;;;;;;;;;3.00;1.50;;;;;12.33;100.00;102354.25;5000849;28;45544;-78
2023/02/19 04:22:48;;;;;;;;;1.00;1.00;;;;;12.35;100.00;102351.59;5000799;28;45570;-77
2023/02/19 04:25:13;;;;;;;;;0.00;0.00;;;;;12.32;100.00;102354.28;4999985;28;51163;-78
2023/02/19 04:27:39;;;;;;;;;0.00;0.00;;;;;12.36;100.00;102361.19;5019174;28;66665;-78
2023/02/19 04:30:07;;;;;;;;;0.00;0.00;;;;;12.35;100.00;102360.31;5008152;28;46332;-78
2023/02/19 04:32:32;;;;;;;;;0.50;0.00;;;;;12.33;100.00;102353.38;5018296;28;45343;-77
2023/02/19 04:34:57;;;;;;;;;0.00;0.00;;;;;12.37;100.00;102369.00;5018529;28;52884;-77
2023/02/19 04:37:23;;;;;;;;;0.75;0.50;;;;;12.35;100.00;102365.56;5017263;28;66177;-77
2023/02/19 04:39:48;;;;;;;;;1.00;1.00;;;;;12.33;100.00;102359.47;5017255;28;66090;-78
2023/02/19 04:42:13;;;;;;;;;1.00;0.00;;;;;12.39;100.00;102362.03;5022469;28;71193;-77
2023/02/19 04:44:39;;;;;;;;;0.00;0.00;;;;;12.39;100.00;102356.78;5037182;28;66569;-78
2023/02/19 04:47:04;;;;;;;;;0.50;0.00;;;;;12.36;100.00;102364.66;5037317;28;64133;-77
2023/02/19 04:49:29;;;;;;;;;0.00;0.00;;;;;12.37;100.00;102368.16;5036704;28;71140;-78
2023/02/19 04:51:55;;;;;;;;;1.25;0.00;;;;;12.37;100.00;102358.56;5037302;28;69542;-78
2023/02/19 04:54:20;;;;;;;;;0.00;0.00;;;;;12.37;100.00;102369.00;5037317;28;45323;-77
2023/02/19 04:56:45;;;;;;;;;0.00;0.00;;;;;12.36;100.00;102367.25;5037877;28;56091;-77
2023/02/19 04:59:11;;;;;;;;;2.00;0.00;;;;;12.36;100.00;102382.06;5036445;28;70553;-78
2023/02/19 05:01:36;;;;;;;;;0.00;0.00;;;;;12.34;100.00;102384.69;5020208;28;45467;-77
2023/02/19 05:04:03;;;;;;;;;0.00;0.00;;;;;12.31;100.00;102387.34;5036309;28;64695;-78
2023/02/19 05:06:29;;;;;;;;;1.00;0.00;;;;;12.30;100.00;102393.44;5037739;28;45756;-78
2023/02/19 05:08:54;;;;;;;;;0.00;0.00;;;;;12.31;100.00;102395.19;5036225;28;68335;-77
2023/02/19 05:11:22;;;;;;;;;0.00;0.00;;;;;12.35;100.00;102401.22;5036693;28;69911;-77
2023/02/19 05:13:48;;;;;;;;;1.00;0.00;;;;;12.33;100.00;102393.44;5037431;28;45399;-77
2023/02/19 05:16:14;;;;;;;;;0.00;0.00;;;;;12.37;100.00;102404.72;5037464;28;45341;-77
2023/02/19 05:18:41;;;;;;;;;1.00;0.00;;;;;12.38;100.00;102407.28;5037144;28;45608;-78
2023/02/19 05:21:06;;;;;;;;;2.50;0.00;;;;;12.36;100.00;102403.81;5037113;28;45776;-77
2023/02/19 05:23:32;;;;;;;;;1.00;0.00;;;;;12.34;100.00;102412.56;5036710;28;45429;-78
2023/02/19 05:25:57;;;;;;;;;0.50;0.00;;;;;12.33;100.00;102400.38;5018746;28;60005;-78
2023/02/19 05:28:27;;;;;;;;;0.00;0.00;;;;;12.30;100.00;102411.72;5036534;28;71761;-77
2023/02/19 05:30:53;;;;;;;;;1.00;0.00;;;;;12.32;100.00;102415.19;5020053;28;45835;-77
2023/02/19 05:33:20;;;;;;;;;0.00;0.00;;;;;12.32;100.00;102409.09;5037259;28;45489;-78
2023/02/19 05:35:50;;;;;;;;;1.00;0.00;;;;;12.31;100.00;102410.84;5037372;28;45439;-78
2023/02/19 05:38:17;;;;;;;;;0.75;0.00;;;;;12.31;100.00;102413.47;5018815;28;45664;-78
2023/02/19 05:40:44;;;;;;;;;1.00;0.00;;;;;12.32;100.00;102417.78;5037025;28;45726;-78
2023/02/19 05:43:09;;;;;;;;;1.00;0.00;;;;;12.33;100.00;102414.31;5018997;28;45419;-78
2023/02/19 05:45:35;;;;;;;;;1.25;0.00;;;;;12.32;100.00;102409.97;5036937;28;45492;-78
2023/02/19 05:48:01;;;;;;;;;1.00;0.00;;;;;12.31;100.00;102426.53;5037117;28;46103;-77
2023/02/19 05:50:28;;;;;;;;;0.00;0.00;;;;;12.33;100.00;102436.94;5036363;28;45423;-77
2023/02/19 05:52:54;;;;;;;;;0.00;0.00;;;;;12.32;100.00;102437.81;5018431;28;45311;-77
2023/02/19 05:55:19;;;;;;;;;0.00;0.00;;;;;12.35;100.00;102438.66;5036097;28;58614;-78
2023/02/19 05:57:46;;;;;;;;;3.00;0.00;;;;;12.36;100.00;102452.56;5035762;28;70922;-78
2023/02/19 06:00:14;;;;;;;;;2.00;0.75;;;;;12.35;100.00;102443.00;5036003;28;45299;-78
2023/02/19 06:02:39;;;;;;;;;0.00;0.00;;;;;12.30;100.00;102437.84;5036453;28;45367;-78
2023/02/19 06:05:05;;;;;;;;;0.00;0.00;;;;;12.29;100.00;102443.91;5035623;28;66542;-77
2023/02/19 06:07:31;;;;;;;;;2.00;0.00;;;;;12.32;100.00;102445.66;5036217;28;46497;-77
2023/02/19 06:09:56;;;;;;;;;1.50;1.50;;;;;12.28;100.00;102438.75;5036239;28;45469;-78
2023/02/19 06:12:22;;;;;;;;;1.00;0.00;;;;;12.25;100.00;102437.00;5036851;28;45827;-78
2023/02/19 06:14:47;;;;;;;;;3.00;2.25;;;;;12.25;100.00;102431.78;5035640;28;59208;-77
2023/02/19 06:17:12;;;;;;;;;2.00;1.00;;;;;12.27;100.00;102432.63;5041118;28;45406;-77
2023/02/19 06:19:38;;;;;;;;;0.00;0.00;;;;;12.20;100.00;102431.84;5040934;28;67708;-77
2023/02/19 06:22:03;;;;;;;;;5.00;5.00;;;;;12.26;100.00;102445.69;5036566;28;45465;-77
2023/02/19 06:24:29;;;;;;;;;0.75;0.75;;;;;12.26;100.00;102432.63;5036248;28;64393;-77
2023/02/19 06:26:54;;;;;;;;;3.00;1.00;;;;;12.27;100.00;102437.00;5036571;28;46261;-77
2023/02/19 06:29:20;;;;;;;;;0.50;0.00;;;;;12.28;100.00;102446.56;5035505;28;70046;-78
2023/02/19 06:31:45;;;;;;;;;1.00;0.00;;;;;12.28;100.00;102447.44;5036275;28;53347;-77
2023/02/19 06:34:10;;;;;;;;;2.25;1.00;;;;;12.28;100.00;102457.88;5036369;28;45364;-78
2023/02/19 06:36:36;;;;;;;;;1.00;1.00;;;;;12.26;100.00;102443.97;5034736;28;69985;-77
2023/02/19 06:39:02;;;;;;;;;3.00;0.00;;;;;12.31;100.00;102460.47;5035499;28;60151;-77
2023/02/19 06:41:28;;;;;;;;;2.25;1.00;;;;;12.31;100.00;102447.41;5036484;28;45448;-77
2023/02/19 06:43:53;;;;;;;;;2.00;1.00;;;;;12.34;100.00;102459.56;5035570;28;49178;-77
2023/02/19 06:46:18;;;;;;;;;1.00;0.50;;;;;12.33;100.00;102465.66;5035946;28;53484;-77
2023/02/19 06:48:44;;;;;;;;;0.00;0.00;;;;;12.28;100.00;102465.72;5034889;28;70904;-77
2023/02/19 06:51:18;;;;;;;;;2.25;2.00;;;;;12.30;100.00;102465.69;5035826;28;45495;-77
2023/02/19 06:53:44;;;;;;;;;1.00;1.00;;;;;12.30;100.00;102474.38;5035931;28;45643;-77
2023/02/19 06:56:24;;;;;;;;;2.00;2.00;;;;;12.30;100.00;102479.63;5035768;28;46520;-77
2023/02/19 06:58:51;;;;;;;;;2.00;1.00;;;;;12.28;100.00;102489.19;5035594;28;45756;-77
2023/02/19 07:01:17;;;;;;;;;2.50;1.50;;;;;12.27;100.00;102484.84;5035704;28;45308;-78
2023/02/19 07:03:42;;;;;;;;;1.25;1.00;;;;;12.26;100.00;102485.75;5034973;28;64184;-78
2023/02/19 07:06:07;;;;;;;;;3.75;1.00;;;;;12.26;100.00;102484.84;5035365;28;51272;-77
2023/02/19 07:08:33;;;;;;;;;0.00;0.00;;;;;12.24;100.00;102490.13;5018515;28;45328;-78
2023/02/19 07:10:58;;;;;;;;;3.00;3.00;;;;;12.23;100.00;102493.59;5034951;28;68196;-78
2023/02/19 07:13:25;;;;;;;;;1.25;1.00;;;;;12.22;100.00;102497.09;5034836;28;65949;-78
2023/02/19 07:15:51;;;;;;;;;5.00;3.75;;;;;12.18;100.00;102506.69;5017517;28;46443;-78
2023/02/19 07:18:17;;;;;;;;;1.00;1.00;;;;;12.14;100.00;102504.09;5035904;28;45489;-78
2023/02/19 07:20:42;;;;;;;;;5.00;3.00;;;;;12.09;100.00;102492.81;5035220;28;45399;-77
2023/02/19 07:23:07;;;;;;;;;1.00;1.00;;;;;12.07;100.00;102490.25;5035105;28;65835;-77
2023/02/19 07:25:33;;;;;;;;;1.25;1.25;;;;;12.05;100.00;102489.38;5016753;28;68875;-78
2023/02/19 07:27:58;;;;;;;;;2.75;2.00;;;;;12.10;100.00;102500.66;5034645;28;64646;-78
2023/02/19 07:30:23;;;;;;;;;1.00;1.00;;;;;12.13;100.00;102512.81;5036781;28;60856;-78
2023/02/19 07:32:49;;;;;;;;;1.00;1.00;;;;;12.18;100.00;102522.34;5038673;28;66564;-78
2023/02/19 07:35:14;;;;;;;;;2.00;1.75;;;;;12.16;100.00;102518.00;5037593;28;71451;-78
2023/02/19 07:37:40;;;;;;;;;1.75;1.50;;;;;12.21;100.00;102516.22;5038952;28;45331;-78
2023/02/19 07:40:06;;;;;;;;;2.25;1.00;;;;;12.20;100.00;102525.81;5039372;28;45707;-78
2023/02/19 07:42:31;;;;;;;;;3.50;0.00;;;;;12.18;100.00;102519.75;5038743;28;45415;-78
2023/02/19 07:44:56;;;;;;;;;1.00;1.00;;;;;12.22;100.00;102522.31;5039156;28;45461;-77
2023/02/19 07:47:22;;;;;;;;;1.00;1.00;;;;;12.23;100.00;102524.91;5038677;28;45247;-78
2023/02/19 07:49:47;;;;;;;;;1.50;1.00;;;;;12.23;100.00;102526.66;5037576;28;59436;-78
2023/02/19 07:52:12;;;;;;;;;2.50;0.75;;;;;12.27;100.00;102528.38;5037925;28;65446;-78
2023/02/19 07:54:38;;;;;;;;;1.50;0.00;;;;;12.29;100.00;102534.44;5020213;28;46118;-78
2023/02/19 07:57:03;;;;;;;;;3.00;2.25;;;;;12.34;100.00;102540.50;5038041;28;62161;-78
2023/02/19 07:59:28;;;;;;;;;1.00;1.00;;;;;12.34;100.00;102550.97;5038114;28;63460;-78
2023/02/19 08:04:38;;;;;;;;;2.00;1.00;;;;;12.42;100.00;102550.91;5039442;28;45665;-76
2023/02/19 08:07:04;;;;;;;;;1.00;0.25;;;;;12.45;100.00;102563.94;5045420;28;45285;-76
2023/02/19 08:09:29;;;;;;;;;1.25;0.25;;;;;12.39;100.00;102550.03;5039194;28;45514;-76
2023/02/19 08:14:39;;;;;;;;;1.75;1.00;;;;;12.44;100.00;102555.22;5039260;28;45784;-76
2023/02/19 08:17:04;;;;;;;;;7.50;1.00;;;;;12.47;100.00;102556.97;5038356;28;45323;-77
2023/02/19 08:19:29;;;;;;;;;1.25;1.00;;;;;12.51;100.00;102563.88;5038291;28;66144;-77
2023/02/19 08:21:55;;;;;;;;;2.50;1.00;;;;;12.53;100.00;102562.97;5038487;28;45357;-77
2023/02/19 08:24:20;;;;;;;;;1.25;1.00;;;;;12.56;100.00;102556.88;5037964;28;71092;-77
2023/02/19 08:26:46;;;;;;;;;1.50;1.00;;;;;12.62;100.00;102563.81;5020877;28;45450;-78
2023/02/19 08:29:11;;;;;;;;;0.75;0.00;;;;;12.67;100.00;102564.63;5037331;28;65956;-77
2023/02/19 08:31:36;;;;;;;;;2.75;2.50;;;;;12.73;100.00;102562.81;5037307;28;51487;-77
2023/02/19 08:34:02;;;;;;;;;2.25;1.00;;;;;12.78;100.00;102562.81;5037149;28;67817;-78
2023/02/19 08:36:27;;;;;;;;;1.50;1.00;;;;;12.84;100.00;102559.25;5038220;28;45339;-77
2023/02/19 08:38:53;;;;;;;;;1.00;1.00;;;;;12.92;100.00;102573.97;5038049;28;45265;-77
2023/02/19 08:41:18;;;;;;;;;2.00;1.00;;;;;12.94;100.00;102561.75;5037619;28;45462;-77
2023/02/19 08:43:43;;;;;;;;;1.00;1.00;;;;;13.00;100.00;102557.34;5038102;28;45343;-78
2023/02/19 08:46:10;;;;;;;;;1.50;0.00;;;;;13.01;100.00;102565.19;5019235;28;64164;-77
2023/02/19 08:48:36;;;;;;;;;2.25;1.50;;;;;12.96;100.00;102551.28;5038072;28;45371;-77
2023/02/19 08:51:05;;;;;;;;;0.50;0.00;;;;;13.07;100.00;102566.88;5020356;28;45558;-77
2023/02/19 08:53:31;;;;;;;;;1.75;1.00;;;;;13.12;100.00;102562.47;5037548;28;47347;-78
2023/02/19 08:55:57;;;;;;;;;3.00;1.00;;;;;13.17;100.00;102569.38;5019895;28;45771;-78
2023/02/19 08:58:25;;;;;;;;;1.00;1.00;;;;;13.26;100.00;102564.91;5033389;28;45738;-78
2023/02/19 09:00:50;;;;;;;;;1.50;0.75;;;;;13.31;100.00;102563.16;5031396;28;45562;-78
2023/02/19 09:03:16;;;;;;;;;1.00;1.00;;;;;13.33;100.00;102557.03;5032532;28;46305;-77
2023/02/19 09:05:41;;;;;;;;;1.75;1.00;;;;;13.34;100.00;102561.38;5025873;28;58199;-77
2023/02/19 09:08:07;;;;;;;;;1.00;1.00;;;;;13.37;100.00;102565.69;4999362;28;45616;-77
2023/02/19 09:10:33;;;;;;;;;0.25;0.25;;;;;13.42;100.00;102570.88;5018558;28;45297;-78
2023/02/19 09:12:58;;;;;;;;;1.25;0.00;;;;;13.43;100.00;102568.25;5017344;28;72509;-80
2023/02/19 09:15:24;;;;;;;;;0.00;0.00;;;;;13.43;100.00;102580.44;5016519;28;45425;-81
2023/02/19 09:17:52;;;;;;;;;1.50;0.00;;;;;13.42;100.00;102579.59;5013525;28;46686;-79
2023/02/19 09:20:17;;;;;;;;;0.00;0.00;;;;;13.40;100.00;102581.34;5026154;28;62111;-82
2023/02/19 09:22:43;;;;;;;;;1.75;0.50;;;;;13.32;100.00;102580.59;5036739;28;45457;-82
2023/02/19 09:25:08;;;;;;;;;1.00;1.00;;;;;13.30;100.00;102578.00;5031013;28;66550;-81
2023/02/19 09:27:34;;;;;;;;;1.00;0.00;;;;;13.29;100.00;102581.44;4999186;28;45474;-80
2023/02/19 09:29:59;;;;;;;;;3.50;2.00;;;;;13.26;100.00;102591.97;5016210;28;45583;-81
2023/02/19 09:32:24;;;;;;;;;0.00;0.00;;;;;13.28;100.00;102581.44;5018661;28;49232;-81
2023/02/19 09:34:50;;;;;;;;;0.00;0.00;;;;;13.20;100.00;102584.16;5016288;28;45241;-82
2023/02/19 09:37:15;;;;;;;;;1.00;1.00;;;;;13.21;100.00;102585.03;5014805;28;45474;-80
2023/02/19 09:39:40;;;;;;;;;0.75;0.75;;;;;13.24;100.00;102590.22;5027760;28;45458;-81
2023/02/19 09:42:22;;;;;;;;;2.00;1.00;;;;;13.31;100.00;102595.41;5028972;28;70834;-81
2023/02/19 09:44:49;;;;;;;;;0.75;0.75;;;;;13.27;100.00;102587.59;5018179;28;45336;-81
2023/02/19 09:47:23;;;;;;;;;1.00;1.00;;;;;13.33;100.00;102595.38;5012910;28;45403;-80
2023/02/19 09:49:52;;;;;;;;;2.00;1.25;;;;;13.37;100.00;102597.06;5013791;28;45346;-80
2023/02/19 09:52:24;;;;;;;;;0.25;0.25;;;;;13.37;100.00;102581.38;5008350;28;46442;-82
2023/02/19 09:54:56;;;;;;;;;1.00;0.75;;;;;13.47;100.00;102588.25;5026751;28;45224;-81
2023/02/19 09:57:22;;;;;;;;;1.75;1.00;;;;;13.47;100.00;102579.56;5012234;28;45421;-82
2023/02/19 09:59:53;;;;;;;;;3.00;3.00;;;;;13.60;100.00;102593.38;5016968;28;45588;-82
2023/02/19 10:02:23;;;;;;;;;1.00;1.00;;;;;13.68;100.00;102605.44;5013300;28;45447;-82
2023/02/19 10:04:50;;;;;;;;;1.00;1.00;;;;;13.80;100.00;102603.56;5019334;28;45743;-80
2023/02/19 10:07:18;;;;;;;;;1.50;1.00;;;;;13.74;100.00;102584.47;5008138;28;45340;-82
2023/02/19 10:09:45;;;;;;;;;2.00;0.75;;;;;13.88;100.00;102591.25;4999534;28;45512;-80
2023/02/19 10:12:17;;;;;;;;;2.00;1.00;;;;;14.04;100.00;102598.03;4998473;28;46177;-82
2023/02/19 10:14:49;;;;;;;;;1.00;1.00;;;;;14.19;100.00;102610.03;5019874;28;45856;-83
2023/02/19 10:17:26;;;;;;;;;2.25;2.00;;;;;14.29;100.00;102608.13;5011620;28;45367;-82
2023/02/19 10:19:52;;;;;;;;;2.25;0.75;;;;;14.37;100.00;102603.63;5008454;28;45402;-83
2023/02/19 10:22:18;;;;;;;;;2.75;1.00;;;;;14.56;100.00;102621.69;4981990;28;48189;-83
2023/02/19 10:24:46;;;;;;;;;3.00;1.00;;;;;14.59;100.00;102614.69;4998725;28;45269;-82
2023/02/19 10:27:13;;;;;;;;;1.25;1.25;;;;;14.73;100.00;102613.59;5035947;28;45426;-83
2023/02/19 10:29:39;;;;;;;;;3.50;1.00;;;;;14.73;100.00;102611.88;5017714;28;45380;-82
2023/02/19 10:32:22;;;;;;;;;2.00;2.00;;;;;14.75;100.00;102617.94;5017272;28;45538;-83
2023/02/19 10:35:07;;;;;;;;;1.75;1.75;;;;;14.84;100.00;102632.63;4998613;28;45898;-84
2023/02/19 10:37:33;;;;;;;;;4.50;2.00;;;;;14.94;100.00;102625.50;4998253;28;45361;-83
2023/02/19 10:39:59;;;;;;;;;2.50;2.50;;;;;14.95;100.00;102635.09;4999747;28;45366;-81
2023/02/19 10:42:25;;;;;;;;;0.00;0.00;;;;;14.91;100.00;102647.38;5017142;28;46694;-82
2023/02/19 10:44:57;;;;;;;;;2.25;2.25;;;;;14.88;100.00;102653.53;5000535;28;45400;-81
2023/02/19 10:47:24;;;;;;;;;2.75;2.00;;;;;14.84;100.00;102649.25;5015779;28;45403;-82
2023/02/19 10:49:51;;;;;;;;;3.00;2.50;;;;;14.86;100.00;102654.47;5006218;28;45619;-84
2023/02/19 10:52:29;;;;;;;;;0.75;0.75;;;;;14.91;100.00;102673.59;4999500;28;46314;-86
2023/02/19 10:55:25;;;;;;;;;4.00;1.50;;;;;14.93;100.00;102678.81;5015091;28;45321;-82
2023/02/19 10:57:50;;;;;;;;;2.00;2.00;;;;;14.85;100.00;102671.09;5022174;28;45429;-83
2023/02/19 11:00:15;;;;;;;;;2.00;2.00;;;;;14.76;99.38;102679.09;5016107;28;61371;-81
2023/02/19 11:02:42;;;;;;;;;3.33;1.33;;;;;14.75;99.71;102682.63;5035117;28;46288;-81
2023/02/19 11:05:14;;;;;;;;;2.00;2.00;;;;;14.72;100.00;102680.91;5020812;28;45450;-80
2023/02/19 11:07:49;;;;;;;;;2.75;1.00;;;;;14.70;100.00;102672.19;5017999;28;45430;-81
2023/02/19 11:10:21;;;;;;;;;2.00;2.00;;;;;14.76;100.00;102666.84;5011108;28;45545;-80
2023/02/19 11:12:48;;;;;;;;;3.25;2.00;;;;;14.97;99.90;102684.00;5000441;28;45567;-81
2023/02/19 11:15:22;;;;;;;;;5.00;2.75;;;;;15.09;98.52;102667.19;5001527;28;45439;-82
2023/02/19 11:17:57;;;;;;;;;4.75;2.00;;;;;15.26;98.68;102662.50;5026770;28;45319;-80
2023/02/19 11:20:22;;;;;;;;;4.00;2.00;;;;;15.51;96.76;102663.81;5021258;28;45320;-82
2023/02/19 11:22:48;;;;;;;;;2.00;1.00;;;;;15.76;97.62;102677.38;5004248;28;45461;-82
2023/02/19 11:25:14;;;;;;;;;3.00;2.00;;;;;15.91;96.35;102670.94;5019051;28;45391;-83
2023/02/19 11:27:54;;;;;;;;;2.00;1.00;;;;;15.90;95.57;102672.72;5018534;28;45359;-81
2023/02/19 11:30:38;;;;;;;;;1.50;1.00;;;;;15.71;95.41;102679.19;5018912;28;45510;-82
2023/02/19 11:33:26;;;;;;;;;3.00;1.25;;;;;15.62;94.87;102683.72;5023909;28;46260;-81
2023/02/19 11:35:58;;;;;;;;;1.25;1.25;;;;;15.47;94.85;102665.63;5001068;28;45321;-81
2023/02/19 11:38:24;;;;;;;;;3.25;1.75;;;;;15.59;94.83;102690.78;5018580;28;45494;-82
2023/02/19 11:41:03;;;;;;;;;3.75;2.00;;;;;15.86;95.07;102679.78;4999713;28;65164;-80
2023/02/19 11:43:47;;;;;;;;;4.00;3.75;;;;;16.53;95.01;102684.50;5037903;28;46378;-80
2023/02/19 11:46:34;;;;;;;;;3.00;2.00;;;;;16.97;93.87;102686.97;5048234;28;45427;-80
2023/02/19 11:49:13;;;;;;;;;3.00;3.00;;;;;16.87;92.57;102681.09;5038635;28;45385;-80
2023/02/19 11:52:17;;;;;;;;;3.00;3.00;;;;;16.82;92.53;102685.56;5000010;28;45581;-80